Acme, WA

6:27 AM PDT on October 25, 2014 (GMT -0700)
Sudden Valley/Lake Whatcom | Change Station
CLOSE
Current Station
Personal Weather Station
Location: Bellingham, WA
Elevation: 648 ft
Nearby Weather Stations

Elev 648 ft 48.70 °N, 122.32 °W | Updated 1 second ago

Partly Cloudy
Partly Cloudy
47.7 °F
Feels Like 48 °F
N
0.0
Wind Variable Wind from West
Gusts 2.0 mph

Today
High -- | Low -- °F
--% Chance of Precip.
Yesterday
High -- | Low -- °F
Precip. -- in
7:44 AM 6:00 PM
Waxing Crescent, 3% visible
Pressure 29.54 in
Visibility 10.0 miles
Clouds Scattered Clouds 9000 ft
Windchill 48 °F
Dew Point 47 °F
Humidity 97%
Rainfall 0.07 in
Snow Depth 0 in , 1 in
UV 0 out of 12
Pollen .40 out of 12
PM2.5 Good
Flu Activity Sporadic
METAR KBLI 251253Z AUTO 02011KT 10SM SCT090 10/07 A2952 RMK AO2 SLP002 T01000067

More Conditions Fewer Conditions

Pressure 29.54 in
Visibility 10.0 miles
Clouds Scattered Clouds 9000 ft
Windchill 48 °F
Dew Point 47 °F
Humidity 97%
Rainfall 0.07 in
Snow Depth 0 in , 1 in
UV 0 out of 12
Pollen .40 out of 12
PM2.5 Good
Flu Activity Sporadic
METAR KBLI 251253Z AUTO 02011KT 10SM SCT090 10/07 A2952 RMK AO2 SLP002 T01000067

More Conditions Fewer Conditions

10-Day Weather Forecast

Almanac

Astronomy

Oct. 25, 2014 Rise Set
Actual Time 7:44 AM PDT 6:00 PM PDT
Civil Twilight 7:12 AM PDT 6:32 PM PDT
Nautical Twilight 6:35 AM PDT 7:09 PM PDT
Astronomical Twilight 5:58 AM PDT 7:45 PM PDT
Moon 9:35 AM PDT 7:19 PM PDT
Length of Visible Light 11h 20m
Length of Day
10h 15m
Tomorrow will be 3m 20s shorter.
Waxing Crescent, 3% of the Moon is Illuminated
Today
Waxing Crescent
Oct 30
First Quarter
Nov 6
Full
Nov 14
Last Quarter
Nov 22
New

Today's Extremes

State Highs State Lows

Community

WunderPhotos

Upload Photos

1,764,829 photos uploaded!

Nearby

Air Quality

  Air Quality AQ Index Pollutant
Yesterday Good
PM2.5
Current Good
PM2.5
Saturday Good
PM2.5
Sunday Good
PM2.5
Monday Good
PM2.5
Tuesday Good
PM2.5
Wednesday Good
PM2.5

Snow Depth

Station Depth Elevation
Elbow Lake 0 in 3200 ft
Mf Nooksack 1 in 4980 ft
Wells Creek 0 in 4200 ft
Beaver Pass 0 in 3620 ft
Hozomeen Camp 0 in 1650 ft

Earthquake Activity

City Distance Mag. Time & Date
Birch Bay, Washington 30 miles 2.8 3:02 AM PDT
2014-10-24
Minimum magnitude displayed is 2.5.

Coastal Water Temperatures

Place Temperature
Port Townsend, WA 52.0 °F
Friday Harbor, WA 51.1 °F
Port Angeles, WA 57.0 °F

Nearby Weather Stations